Stuarts Draft, Virginia
Current Conditions -  °F | °C
As of 10:55 PM on Wednesday 22 Oct 2014 (Local Time) from KW13 Reporting Station
Scattered Clouds Scattered Clouds  
Wind Chill: 45°   Ceiling: Unl
Heat Index: 45°   Visibility: 10mi
Dew Point: 39°   Wind: 0mph
Humidity: 80%   Direction: NA
Pressure: 30.05"   Gusts: NA
Location:  38.03°N, 79.03°W
Report Text: KW13 230255Z AUTO 00000KT 10SM SCT036 07/04 A3005 RMK AO1 T00720040
Loading
Personal Weather Stations






























Interactive Weather Map
Tropical Storm Tracking
New forecast layout! Learn more

10-Day Weather Forecast

Advertisements
Track Severe Weather on mobile